Time;durP1;ratioP1;P1;durP2;ratioP2;P2;SDS_P1;SDS_P2;PMS_P1;PMS_P2;Temp;Humidity;BMP_temperature;BMP_pressure;BME280_temperature;BME280_humidity;BME280_pressure;Samples;Min_cycle;Max_cycle;Signal;HPM_P1;HPM_P2
2023/08/04 00:02:22;;;;;;;1.00;0.83;;;14.40;99.90;;;;;;4800983;22;20498;-68
2023/08/04 00:04:52;;;;;;;1.20;1.03;;;14.50;99.90;;;;;;5051257;28;20458;-68
2023/08/04 00:07:19;;;;;;;1.37;0.93;;;14.40;99.90;;;;;;5032632;28;20461;-68
2023/08/04 00:09:46;;;;;;;1.13;1.00;;;14.40;99.90;;;;;;5037649;28;20507;-68
2023/08/04 00:12:12;;;;;;;1.17;1.00;;;14.40;99.90;;;;;;5051739;28;20469;-68
2023/08/04 00:14:39;;;;;;;0.90;0.80;;;14.40;99.90;;;;;;5051975;28;20462;-68
2023/08/04 00:17:06;;;;;;;2.03;1.10;;;14.40;99.90;;;;;;5051517;28;20548;-68
2023/08/04 00:19:32;;;;;;;1.33;1.23;;;14.30;99.90;;;;;;5051857;28;20476;-69
2023/08/04 00:22:00;;;;;;;1.40;1.20;;;14.20;99.90;;;;;;5051922;28;20810;-68
2023/08/04 00:24:27;;;;;;;1.33;1.03;;;14.20;99.90;;;;;;5051506;28;20461;-68
2023/08/04 00:26:54;;;;;;;1.37;0.90;;;14.20;99.90;;;;;;5051613;28;20461;-68
2023/08/04 00:29:20;;;;;;;1.07;0.90;;;14.10;99.90;;;;;;5051041;28;20497;-68
2023/08/04 00:31:47;;;;;;;1.40;1.00;;;14.10;99.90;;;;;;5051656;28;20458;-68
2023/08/04 00:34:14;;;;;;;1.00;0.90;;;14.10;99.90;;;;;;5051266;28;20454;-68
2023/08/04 00:36:40;;;;;;;1.47;0.97;;;14.00;99.90;;;;;;5051492;28;20456;-68
2023/08/04 00:39:08;;;;;;;1.87;0.93;;;14.00;99.90;;;;;;5051087;28;20480;-68
2023/08/04 00:41:35;;;;;;;1.30;1.00;;;13.90;99.90;;;;;;5035511;28;20909;-68
2023/08/04 00:44:02;;;;;;;1.50;1.10;;;13.90;99.90;;;;;;5051395;28;20479;-68
2023/08/04 00:46:30;;;;;;;1.87;1.20;;;13.90;99.90;;;;;;5050901;28;20461;-68
2023/08/04 00:48:57;;;;;;;2.37;1.20;;;13.80;99.90;;;;;;5051020;28;20499;-68
2023/08/04 00:51:24;;;;;;;0.90;0.80;;;13.80;99.90;;;;;;5051004;28;20457;-68
2023/08/04 00:53:51;;;;;;;0.80;0.80;;;13.70;99.90;;;;;;5051275;28;20462;-68
2023/08/04 00:56:19;;;;;;;1.03;0.93;;;13.70;99.90;;;;;;5050646;28;20457;-68
2023/08/04 00:58:46;;;;;;;1.10;1.00;;;13.70;99.90;;;;;;5050773;28;20481;-68
2023/08/04 01:01:13;;;;;;;2.57;0.93;;;13.60;99.90;;;;;;5050413;28;20462;-68
2023/08/04 01:03:40;;;;;;;2.80;1.17;;;13.60;99.90;;;;;;5050998;28;20464;-68
2023/08/04 01:06:15;;;;;;;1.30;1.03;;;13.60;99.90;;;;;;5050870;28;20812;-68
2023/08/04 01:08:52;;;;;;;2.60;1.20;;;13.60;99.90;;;;;;5042394;28;20478;-68
2023/08/04 01:11:23;;;;;;;1.93;1.27;;;13.60;99.90;;;;;;5050678;28;20466;-69
2023/08/04 01:13:51;;;;;;;1.43;1.00;;;13.60;99.90;;;;;;5045342;28;20457;-68
2023/08/04 01:16:18;;;;;;;2.87;1.00;;;13.60;99.90;;;;;;5030135;28;20986;-68
2023/08/04 01:18:45;;;;;;;1.27;0.93;;;13.60;99.90;;;;;;5038902;28;20488;-68
2023/08/04 01:21:13;;;;;;;1.40;0.93;;;13.70;99.90;;;;;;5030612;28;20462;-68
2023/08/04 01:23:40;;;;;;;3.30;0.93;;;13.70;99.90;;;;;;5043058;28;20459;-68
2023/08/04 01:26:10;;;;;;;1.50;0.93;;;13.70;99.90;;;;;;5050481;28;20482;-69
2023/08/04 01:28:38;;;;;;;1.30;0.87;;;13.70;99.90;;;;;;5034041;28;20543;-68
2023/08/04 01:31:05;;;;;;;1.30;0.90;;;13.70;99.90;;;;;;5035056;28;20458;-68
2023/08/04 01:33:32;;;;;;;1.67;1.20;;;13.70;99.90;;;;;;5038652;28;20467;-68
2023/08/04 01:35:59;;;;;;;1.83;1.10;;;13.80;99.90;;;;;;5030574;28;20450;-68
2023/08/04 01:38:27;;;;;;;0.90;0.80;;;13.70;99.90;;;;;;5029794;28;20472;-68
2023/08/04 01:40:54;;;;;;;1.50;1.10;;;13.80;99.90;;;;;;5030619;28;20465;-68
2023/08/04 01:43:21;;;;;;;5.20;1.27;;;13.80;99.90;;;;;;5030119;28;20489;-68
2023/08/04 01:45:48;;;;;;;5.40;1.50;;;13.80;99.90;;;;;;5030419;28;20461;-69
2023/08/04 01:48:14;;;;;;;1.43;1.00;;;13.80;99.90;;;;;;5029708;28;20470;-69
2023/08/04 01:50:41;;;;;;;1.17;0.90;;;13.80;99.90;;;;;;5030614;28;20476;-68
2023/08/04 01:53:08;;;;;;;4.33;1.10;;;13.90;99.90;;;;;;5030211;28;20472;-68
2023/08/04 01:55:36;;;;;;;1.20;1.10;;;13.90;99.90;;;;;;5029744;28;20833;-68
2023/08/04 01:58:02;;;;;;;1.20;1.10;;;13.90;99.90;;;;;;5029828;28;20484;-68
2023/08/04 02:00:29;;;;;;;1.20;1.00;;;13.90;99.90;;;;;;5029686;28;20458;-68
2023/08/04 02:02:56;;;;;;;1.93;0.90;;;13.90;99.90;;;;;;5030342;28;20908;-68
2023/08/04 02:05:22;;;;;;;1.00;0.90;;;13.80;99.90;;;;;;5029937;28;20465;-68
2023/08/04 02:07:49;;;;;;;1.20;1.00;;;13.90;99.90;;;;;;5029720;28;20476;-68
2023/08/04 02:10:16;;;;;;;1.33;1.10;;;13.80;99.90;;;;;;5029870;28;20855;-68
2023/08/04 02:12:44;;;;;;;1.30;1.10;;;13.80;99.90;;;;;;5030309;28;20464;-68
2023/08/04 02:15:11;;;;;;;0.90;0.80;;;13.80;99.90;;;;;;5045592;28;20528;-68
2023/08/04 02:17:37;;;;;;;1.93;1.00;;;13.90;99.90;;;;;;5049233;28;20461;-68
2023/08/04 02:20:05;;;;;;;1.17;1.07;;;13.90;99.90;;;;;;5049625;28;20461;-68
2023/08/04 02:22:32;;;;;;;1.57;1.00;;;13.90;99.90;;;;;;5049760;28;20457;-68
2023/08/04 02:24:59;;;;;;;1.27;1.17;;;13.90;99.90;;;;;;5049904;28;20461;-68
2023/08/04 02:27:25;;;;;;;1.30;0.90;;;13.90;99.90;;;;;;5050912;28;21038;-69
2023/08/04 02:29:53;;;;;;;1.70;1.20;;;13.90;99.90;;;;;;5053829;28;20477;-68
2023/08/04 02:32:20;;;;;;;2.37;1.27;;;13.90;99.90;;;;;;5053514;28;20663;-68
2023/08/04 02:34:47;;;;;;;1.00;0.90;;;13.90;99.90;;;;;;5053785;28;20455;-68
2023/08/04 02:37:13;;;;;;;1.43;0.90;;;13.90;99.90;;;;;;5053146;28;20837;-68
2023/08/04 02:39:40;;;;;;;1.80;1.10;;;14.00;99.90;;;;;;5053508;28;20473;-68
2023/08/04 02:42:07;;;;;;;1.80;1.17;;;14.00;99.90;;;;;;5053657;28;20467;-68
2023/08/04 02:44:34;;;;;;;1.10;0.90;;;14.00;99.90;;;;;;5053428;28;20474;-68
2023/08/04 02:47:02;;;;;;;1.10;0.90;;;14.00;99.90;;;;;;5053530;28;20469;-68
2023/08/04 02:49:29;;;;;;;1.30;1.20;;;14.10;99.90;;;;;;5052726;28;20496;-68
2023/08/04 02:51:55;;;;;;;12.50;1.40;;;14.00;99.90;;;;;;5053626;28;20973;-68
2023/08/04 02:54:22;;;;;;;2.03;1.30;;;14.00;99.90;;;;;;5053106;28;20839;-68
2023/08/04 02:56:49;;;;;;;1.87;1.00;;;14.00;99.90;;;;;;5053245;28;20459;-68
2023/08/04 02:59:15;;;;;;;1.57;0.97;;;14.00;99.90;;;;;;5052819;28;20492;-68
2023/08/04 03:01:42;;;;;;;1.83;1.10;;;14.10;99.90;;;;;;5053161;28;20809;-68
2023/08/04 03:04:12;;;;;;;1.00;0.90;;;14.10;99.90;;;;;;5053221;28;20461;-68
2023/08/04 03:06:39;;;;;;;1.07;0.97;;;14.10;99.90;;;;;;5053001;28;20456;-69
2023/08/04 03:09:06;;;;;;;1.33;1.10;;;14.10;99.90;;;;;;5052816;28;20503;-68
2023/08/04 03:11:33;;;;;;;1.57;1.13;;;14.10;99.90;;;;;;5052959;28;20856;-68
2023/08/04 03:13:59;;;;;;;1.20;1.00;;;14.10;99.90;;;;;;5053132;28;20455;-68
2023/08/04 03:16:25;;;;;;;1.47;1.30;;;14.10;99.90;;;;;;5052695;28;20986;-68
2023/08/04 03:18:52;;;;;;;1.37;0.90;;;14.10;99.90;;;;;;5052748;28;20480;-68
2023/08/04 03:21:20;;;;;;;1.63;1.10;;;14.10;99.90;;;;;;5053083;28;20198;-68
2023/08/04 03:23:46;;;;;;;2.57;1.20;;;14.10;99.90;;;;;;5052889;28;20459;-68
2023/08/04 03:26:13;;;;;;;2.13;0.97;;;14.10;99.90;;;;;;5052530;28;20461;-68
2023/08/04 03:28:40;;;;;;;1.30;1.00;;;14.10;99.90;;;;;;5052320;28;20828;-68
2023/08/04 03:31:06;;;;;;;1.20;1.03;;;14.10;99.90;;;;;;5051400;28;20479;-68
2023/08/04 03:33:34;;;;;;;1.40;1.00;;;14.00;99.90;;;;;;5042040;28;20828;-69
2023/08/04 03:36:01;;;;;;;1.20;0.90;;;13.90;99.90;;;;;;5041874;28;20460;-68
2023/08/04 03:38:29;;;;;;;2.20;1.10;;;13.90;99.90;;;;;;5040593;28;20486;-68
2023/08/04 03:40:56;;;;;;;1.00;0.90;;;13.90;99.90;;;;;;5042187;28;20454;-68
2023/08/04 03:43:22;;;;;;;1.00;0.90;;;13.90;99.90;;;;;;5042903;28;20992;-69
2023/08/04 03:45:49;;;;;;;1.10;0.90;;;13.90;99.90;;;;;;5042780;28;20461;-68
2023/08/04 03:48:16;;;;;;;1.40;1.00;;;13.80;99.90;;;;;;5042990;28;20476;-69
2023/08/04 03:50:44;;;;;;;1.30;1.17;;;13.80;99.90;;;;;;5035576;28;20481;-69
2023/08/04 03:53:10;;;;;;;1.67;1.50;;;13.80;99.90;;;;;;5036843;28;20473;-69
2023/08/04 03:55:39;;;;;;;1.40;1.10;;;13.70;99.90;;;;;;5033752;28;20456;-69
2023/08/04 03:58:06;;;;;;;1.73;1.40;;;13.80;99.90;;;;;;5052130;28;20562;-69
2023/08/04 04:00:32;;;;;;;3.13;1.43;;;13.80;99.90;;;;;;5051611;28;20970;-69
2023/08/04 04:02:59;;;;;;;1.87;1.10;;;13.80;99.90;;;;;;5045256;28;20836;-68
2023/08/04 04:05:26;;;;;;;1.10;0.97;;;13.80;99.90;;;;;;5044407;28;20471;-68
2023/08/04 04:07:53;;;;;;;2.13;1.17;;;13.80;99.90;;;;;;5032020;28;20481;-68
2023/08/04 04:10:19;;;;;;;1.60;1.13;;;13.80;99.90;;;;;;5047692;28;21010;-68
2023/08/04 04:12:48;;;;;;;2.60;1.20;;;13.80;99.90;;;;;;5041851;28;20809;-68
2023/08/04 04:15:14;;;;;;;1.47;1.07;;;13.80;99.90;;;;;;5038743;28;20460;-68
2023/08/04 04:17:41;;;;;;;1.20;1.10;;;13.80;99.90;;;;;;5050168;28;20457;-68
2023/08/04 04:20:08;;;;;;;1.50;1.13;;;13.80;99.90;;;;;;5037790;28;20954;-69
2023/08/04 04:22:35;;;;;;;1.33;0.90;;;13.80;99.90;;;;;;5051977;28;20971;-68
2023/08/04 04:25:02;;;;;;;1.30;1.03;;;13.80;99.90;;;;;;5047622;28;20481;-68
2023/08/04 04:27:29;;;;;;;1.40;1.20;;;13.80;99.90;;;;;;5046839;28;20521;-68
2023/08/04 04:29:57;;;;;;;1.00;0.90;;;13.80;99.90;;;;;;5046518;28;20478;-68
2023/08/04 04:32:24;;;;;;;1.50;1.20;;;13.70;99.90;;;;;;5031723;28;20474;-68
2023/08/04 04:34:51;;;;;;;1.50;1.07;;;13.70;99.90;;;;;;5039692;28;20460;-68
2023/08/04 04:37:17;;;;;;;4.80;1.33;;;13.80;99.90;;;;;;5031124;28;20465;-68
2023/08/04 04:39:44;;;;;;;1.77;1.23;;;13.70;99.90;;;;;;5049794;28;20480;-68
2023/08/04 04:42:11;;;;;;;3.47;1.20;;;13.70;99.90;;;;;;5051377;28;20805;-68
2023/08/04 04:44:37;;;;;;;1.03;0.87;;;13.80;99.90;;;;;;5051291;28;20839;-67
2023/08/04 04:47:06;;;;;;;1.47;1.23;;;13.80;99.90;;;;;;5038624;28;20456;-68
2023/08/04 04:49:33;;;;;;;1.17;1.07;;;13.80;99.90;;;;;;5030017;28;20485;-68
2023/08/04 04:51:59;;;;;;;1.13;1.03;;;13.80;99.90;;;;;;5031474;28;20507;-68
2023/08/04 04:54:26;;;;;;;1.20;1.00;;;13.90;99.90;;;;;;5031096;28;20463;-68
2023/08/04 04:56:53;;;;;;;1.10;1.00;;;13.90;99.90;;;;;;5050335;28;20593;-68
2023/08/04 04:59:19;;;;;;;1.23;1.00;;;13.90;99.90;;;;;;5044326;28;20484;-68
2023/08/04 05:01:46;;;;;;;2.63;1.10;;;13.90;99.90;;;;;;5030904;28;20956;-68
2023/08/04 05:04:14;;;;;;;1.33;1.20;;;13.90;99.90;;;;;;5036384;28;20449;-68
2023/08/04 05:06:41;;;;;;;1.63;1.30;;;13.90;99.90;;;;;;5050632;28;20458;-68
2023/08/04 05:09:08;;;;;;;2.00;1.20;;;13.90;99.90;;;;;;5050327;28;20486;-68
2023/08/04 05:11:35;;;;;;;2.30;1.10;;;13.90;99.90;;;;;;5051044;28;20495;-68
2023/08/04 05:14:01;;;;;;;1.10;0.93;;;14.00;99.90;;;;;;5051016;28;20461;-68
2023/08/04 05:16:28;;;;;;;1.13;1.00;;;14.00;99.90;;;;;;5050587;28;21218;-68
2023/08/04 05:18:55;;;;;;;1.10;1.00;;;14.10;99.90;;;;;;5031143;28;20478;-68
2023/08/04 05:21:23;;;;;;;1.97;1.20;;;14.20;99.90;;;;;;5030836;28;20461;-68
2023/08/04 05:23:49;;;;;;;1.53;1.30;;;14.40;99.90;;;;;;5032616;28;20834;-72
2023/08/04 05:26:16;;;;;;;1.53;1.10;;;14.50;99.90;;;;;;5050368;28;20455;-68
2023/08/04 05:28:43;;;;;;;1.20;1.10;;;14.70;99.90;;;;;;5049960;28;20996;-68
2023/08/04 05:31:09;;;;;;;1.40;1.13;;;14.80;99.90;;;;;;5050415;28;20475;-68
2023/08/04 05:33:36;;;;;;;1.10;1.00;;;14.90;99.90;;;;;;5050541;28;20461;-67
2023/08/04 05:36:03;;;;;;;1.63;1.00;;;15.00;99.90;;;;;;5050346;28;20455;-67
2023/08/04 05:38:32;;;;;;;1.23;1.00;;;15.10;99.90;;;;;;5049977;28;20513;-68
2023/08/04 05:41:01;;;;;;;2.37;1.30;;;15.10;99.90;;;;;;5050402;28;20836;-68
2023/08/04 05:43:28;;;;;;;1.20;1.10;;;15.20;99.90;;;;;;5050326;28;20536;-68
2023/08/04 05:45:55;;;;;;;1.30;1.20;;;15.20;99.90;;;;;;5050013;28;20821;-68
2023/08/04 05:48:22;;;;;;;1.33;1.00;;;15.20;99.90;;;;;;5049764;28;20489;-68
2023/08/04 05:50:48;;;;;;;1.20;1.10;;;15.30;99.90;;;;;;5032255;28;20558;-68
2023/08/04 05:53:15;;;;;;;1.10;1.00;;;15.30;99.90;;;;;;5035342;28;20465;-67
2023/08/04 05:55:43;;;;;;;1.57;1.10;;;15.30;99.90;;;;;;5049992;28;20461;-68
2023/08/04 05:58:10;;;;;;;5.40;1.37;;;15.40;99.90;;;;;;5049803;28;20848;-68
2023/08/04 06:00:37;;;;;;;1.53;1.43;;;15.40;99.90;;;;;;5140562;22;20445;-70
2023/08/04 06:03:04;;;;;;;1.60;1.00;;;15.40;99.90;;;;;;5061461;28;20456;-71
2023/08/04 06:05:30;;;;;;;1.20;1.10;;;15.50;99.90;;;;;;5061749;28;20454;-71
2023/08/04 06:07:57;;;;;;;1.63;0.80;;;15.50;99.90;;;;;;5061384;28;20472;-71
2023/08/04 06:10:24;;;;;;;1.20;0.97;;;15.50;99.90;;;;;;5070031;28;20481;-70
2023/08/04 06:12:52;;;;;;;1.10;1.00;;;15.60;99.90;;;;;;5070020;28;20467;-71
2023/08/04 06:15:19;;;;;;;3.40;1.53;;;15.60;99.90;;;;;;5069546;28;20456;-71
2023/08/04 06:17:47;;;;;;;1.73;1.13;;;15.60;99.90;;;;;;5069597;28;20480;-71
2023/08/04 06:20:14;;;;;;;1.97;1.10;;;15.60;99.90;;;;;;5069996;28;20939;-71
2023/08/04 06:22:40;;;;;;;1.30;1.10;;;15.60;99.90;;;;;;5069387;28;20469;-72
2023/08/04 06:25:08;;;;;;;1.20;1.00;;;15.70;99.90;;;;;;5054261;28;20819;-72
2023/08/04 06:27:35;;;;;;;1.20;1.00;;;15.70;99.90;;;;;;5069351;28;20453;-72
2023/08/04 06:30:03;;;;;;;1.20;1.00;;;15.70;99.90;;;;;;5069985;28;20458;-72
2023/08/04 06:32:30;;;;;;;1.53;1.00;;;15.80;99.90;;;;;;5070008;28;20485;-71
2023/08/04 06:34:57;;;;;;;2.70;1.10;;;15.80;99.90;;;;;;5070049;28;20463;-72
2023/08/04 06:37:24;;;;;;;2.00;1.10;;;15.90;99.90;;;;;;5069406;28;20468;-71
2023/08/04 06:39:52;;;;;;;1.00;0.83;;;15.90;99.90;;;;;;5070169;28;20831;-72
2023/08/04 06:42:19;;;;;;;1.00;0.90;;;16.00;99.90;;;;;;5069998;28;20483;-72
2023/08/04 06:44:46;;;;;;;1.23;1.00;;;16.00;99.90;;;;;;5070080;28;20460;-72
2023/08/04 06:47:14;;;;;;;1.70;1.27;;;16.10;99.90;;;;;;5069633;28;20461;-72
2023/08/04 06:49:42;;;;;;;1.20;1.00;;;16.20;99.90;;;;;;5070001;28;20475;-72
2023/08/04 06:52:09;;;;;;;2.00;1.03;;;16.20;99.90;;;;;;5070006;28;20475;-72
2023/08/04 06:54:38;;;;;;;1.77;1.20;;;16.20;99.90;;;;;;5069869;28;20491;-72
2023/08/04 06:57:05;;;;;;;1.60;1.17;;;16.30;99.90;;;;;;5069840;28;20458;-72
2023/08/04 06:59:32;;;;;;;1.20;0.90;;;16.40;99.90;;;;;;5069491;28;20997;-72
2023/08/04 07:01:59;;;;;;;1.93;1.23;;;16.40;99.90;;;;;;5069621;28;20999;-72
2023/08/04 07:04:27;;;;;;;1.30;0.97;;;16.50;99.90;;;;;;5069805;28;20460;-72
2023/08/04 07:06:54;;;;;;;2.30;1.10;;;16.60;99.90;;;;;;5069598;28;20460;-72
2023/08/04 07:09:21;;;;;;;1.10;0.97;;;16.60;99.90;;;;;;5069651;28;20488;-72
2023/08/04 07:11:48;;;;;;;1.10;0.80;;;16.70;99.90;;;;;;5069737;28;21012;-72
2023/08/04 07:14:14;;;;;;;1.47;1.17;;;16.90;99.90;;;;;;5072977;28;20454;-72
2023/08/04 07:16:41;;;;;;;1.00;0.80;;;17.00;99.90;;;;;;5073186;28;20520;-72
2023/08/04 07:19:08;;;;;;;2.07;1.03;;;17.10;99.90;;;;;;5072952;28;20478;-72
2023/08/04 07:21:37;;;;;;;1.80;1.20;;;17.10;99.90;;;;;;5073573;28;20451;-72
2023/08/04 07:24:04;;;;;;;1.27;1.17;;;17.20;99.90;;;;;;5073544;28;20447;-72
2023/08/04 07:26:32;;;;;;;1.37;1.23;;;17.30;99.90;;;;;;5073212;28;20825;-72
2023/08/04 07:28:59;;;;;;;1.20;1.10;;;17.30;99.90;;;;;;5072592;28;20500;-72
2023/08/04 07:31:25;;;;;;;1.33;0.90;;;17.30;99.90;;;;;;5072900;28;20475;-72
2023/08/04 07:33:52;;;;;;;1.77;1.00;;;17.40;99.90;;;;;;5073021;28;20841;-72
2023/08/04 07:36:19;;;;;;;1.60;1.20;;;17.40;99.90;;;;;;5072685;28;20459;-72
2023/08/04 07:38:47;;;;;;;1.30;1.00;;;17.60;99.90;;;;;;5073008;28;20470;-72
2023/08/04 07:41:18;;;;;;;1.20;1.10;;;17.60;99.90;;;;;;5056635;28;20825;-72
2023/08/04 07:43:45;;;;;;;1.20;1.10;;;17.70;99.90;;;;;;5073112;28;20470;-72
2023/08/04 07:46:19;;;;;;;1.00;0.70;;;17.70;99.90;;;;;;5072563;28;20458;-72
2023/08/04 07:48:46;;;;;;;1.10;1.00;;;17.80;99.90;;;;;;5072834;28;20477;-72
2023/08/04 07:51:12;;;;;;;1.57;0.90;;;17.80;99.90;;;;;;5072405;28;20502;-72
2023/08/04 07:53:39;;;;;;;1.50;1.00;;;17.90;99.90;;;;;;5072705;28;20459;-72
2023/08/04 07:56:07;;;;;;;2.33;1.30;;;18.00;99.90;;;;;;5072432;28;20480;-72
2023/08/04 07:58:34;;;;;;;1.53;1.20;;;18.10;99.90;;;;;;5072135;28;20485;-72
2023/08/04 08:01:03;;;;;;;2.40;1.00;;;18.20;99.90;;;;;;5072113;28;20462;-72
2023/08/04 08:03:30;;;;;;;1.40;1.30;;;18.10;99.90;;;;;;5072468;28;20481;-72
2023/08/04 08:05:57;;;;;;;1.37;1.03;;;18.10;99.90;;;;;;5070123;28;20473;-72
2023/08/04 08:08:23;;;;;;;1.57;1.07;;;18.00;99.90;;;;;;5071025;28;20471;-73
2023/08/04 08:10:50;;;;;;;1.77;1.10;;;18.00;99.90;;;;;;5072103;28;20465;-72
2023/08/04 08:13:18;;;;;;;4.43;1.40;;;18.00;99.90;;;;;;5052808;28;20462;-72
2023/08/04 08:15:45;;;;;;;1.10;1.00;;;18.10;99.90;;;;;;5072375;28;20972;-73
2023/08/04 08:18:12;;;;;;;2.20;1.00;;;18.10;99.90;;;;;;5071403;28;20486;-72
2023/08/04 08:20:40;;;;;;;1.17;0.90;;;18.20;99.90;;;;;;5072289;28;20458;-72
2023/08/04 08:23:07;;;;;;;3.80;1.17;;;18.30;99.90;;;;;;5071996;28;20455;-72
2023/08/04 08:25:35;;;;;;;1.37;0.80;;;18.30;99.90;;;;;;5070728;28;20454;-72
2023/08/04 08:28:01;;;;;;;1.30;1.20;;;18.50;99.90;;;;;;5071478;28;20540;-72
2023/08/04 08:30:30;;;;;;;0.97;0.87;;;18.50;99.90;;;;;;5072111;28;20455;-72
2023/08/04 08:32:56;;;;;;;1.00;0.90;;;18.60;99.90;;;;;;5071970;28;21017;-72
2023/08/04 08:35:23;;;;;;;1.07;0.93;;;18.70;99.90;;;;;;5071823;28;20461;-72
2023/08/04 08:37:50;;;;;;;1.27;0.90;;;18.80;99.90;;;;;;5071584;28;21285;-72
2023/08/04 08:40:18;;;;;;;1.20;1.00;;;18.80;99.90;;;;;;5071827;28;20546;-72
2023/08/04 08:42:44;;;;;;;2.03;1.10;;;18.90;99.90;;;;;;5071802;28;20462;-72
2023/08/04 08:45:11;;;;;;;2.03;1.03;;;18.90;99.90;;;;;;5071433;28;20452;-72
2023/08/04 08:47:40;;;;;;;2.67;1.20;;;18.90;99.90;;;;;;5070855;28;20458;-72
2023/08/04 08:50:07;;;;;;;1.50;1.13;;;18.90;99.90;;;;;;5071357;28;20452;-72
2023/08/04 08:52:39;;;;;;;1.10;0.90;;;18.90;99.90;;;;;;5071377;28;20492;-72
2023/08/04 08:55:07;;;;;;;1.00;0.83;;;18.80;99.90;;;;;;5071583;28;20478;-72
2023/08/04 08:57:35;;;;;;;2.03;1.10;;;18.90;99.90;;;;;;5070737;28;20459;-72
2023/08/04 09:00:04;;;;;;;1.33;1.00;;;19.00;99.90;;;;;;5071228;28;20455;-72
2023/08/04 09:02:31;;;;;;;1.10;1.00;;;19.10;99.90;;;;;;5071010;28;20961;-72
2023/08/04 09:04:59;;;;;;;1.20;1.10;;;19.10;99.90;;;;;;5071071;28;20459;-72
2023/08/04 09:07:26;;;;;;;1.90;1.40;;;19.10;99.90;;;;;;5070489;28;20513;-72
2023/08/04 09:09:53;;;;;;;1.60;1.10;;;19.10;99.90;;;;;;5071379;28;20941;-72
2023/08/04 09:12:21;;;;;;;1.87;0.90;;;19.10;99.90;;;;;;5071072;28;20475;-73
2023/08/04 09:14:49;;;;;;;1.90;0.90;;;19.10;99.90;;;;;;5071309;28;20518;-73
2023/08/04 09:17:30;;;;;;;1.87;1.00;;;19.10;99.90;;;;;;5070345;28;20827;-72
2023/08/04 09:19:58;;;;;;;2.47;1.20;;;19.00;99.90;;;;;;5071208;28;20462;-72
2023/08/04 09:22:26;;;;;;;1.13;0.87;;;19.00;99.90;;;;;;5055049;28;20455;-72
2023/08/04 09:24:54;;;;;;;1.60;1.10;;;19.00;99.90;;;;;;5071177;28;20458;-72
2023/08/04 09:27:28;;;;;;;1.53;0.90;;;19.00;99.90;;;;;;5070406;28;20459;-71
2023/08/04 09:29:58;;;;;;;1.43;1.03;;;19.10;99.90;;;;;;5071272;28;20471;-72
2023/08/04 09:32:25;;;;;;;1.40;0.90;;;19.20;99.90;;;;;;5070636;28;20529;-72
2023/08/04 09:35:04;;;;;;;1.83;1.20;;;19.30;99.90;;;;;;5071003;28;20456;-72
2023/08/04 09:37:32;;;;;;;1.30;1.20;;;19.50;99.90;;;;;;5055369;28;20461;-72
2023/08/04 09:39:59;;;;;;;1.00;0.90;;;19.80;99.90;;;;;;5070898;28;20974;-72
2023/08/04 09:42:26;;;;;;;1.60;1.00;;;20.20;99.90;;;;;;5070412;28;20459;-72
2023/08/04 09:44:54;;;;;;;1.83;1.00;;;20.40;99.90;;;;;;5070619;28;20458;-72
2023/08/04 09:47:25;;;;;;;1.00;0.80;;;20.50;99.90;;;;;;5069868;28;20473;-72
2023/08/04 09:49:51;;;;;;;1.00;0.80;;;20.60;99.90;;;;;;5070730;28;20960;-72
2023/08/04 09:52:24;;;;;;;1.67;1.03;;;20.60;99.90;;;;;;5070204;28;20484;-71
2023/08/04 09:54:53;;;;;;;1.00;0.90;;;20.60;99.90;;;;;;5070680;28;20483;-71
2023/08/04 09:57:21;;;;;;;0.90;0.77;;;20.60;99.90;;;;;;5069720;28;20470;-72
2023/08/04 09:59:48;;;;;;;1.63;0.97;;;20.60;99.90;;;;;;5070498;28;20471;-71
2023/08/04 10:02:16;;;;;;;2.27;1.00;;;20.70;99.90;;;;;;5069983;28;20455;-72
2023/08/04 10:04:44;;;;;;;2.10;1.10;;;20.80;99.90;;;;;;5070336;28;20939;-71
2023/08/04 10:07:11;;;;;;;1.17;0.80;;;20.60;99.90;;;;;;5069940;28;20465;-72
2023/08/04 10:09:40;;;;;;;1.07;0.93;;;20.30;99.90;;;;;;5070321;28;20858;-72
2023/08/04 10:12:09;;;;;;;1.50;1.10;;;20.00;99.90;;;;;;5070118;28;20583;-72
2023/08/04 10:14:35;;;;;;;1.47;1.00;;;19.80;99.90;;;;;;5070230;28;20457;-71
2023/08/04 10:17:03;;;;;;;1.53;1.07;;;19.70;99.90;;;;;;5070196;28;20454;-72
2023/08/04 10:19:30;;;;;;;4.03;1.80;;;19.50;99.90;;;;;;5053866;28;21016;-72
2023/08/04 10:22:05;;;;;;;1.07;0.97;;;19.60;99.90;;;;;;5070474;28;20480;-72
2023/08/04 10:24:35;;;;;;;1.13;0.90;;;19.50;99.90;;;;;;5055061;28;20519;-72
2023/08/04 10:27:13;;;;;;;1.77;1.23;;;19.40;99.90;;;;;;5070310;28;20462;-71
2023/08/04 10:29:40;;;;;;;2.50;1.20;;;19.40;99.90;;;;;;5056631;28;20515;-71
2023/08/04 10:32:08;;;;;;;1.53;1.30;;;19.30;99.90;;;;;;5069776;28;20579;-72
2023/08/04 10:34:37;;;;;;;1.97;1.00;;;19.20;99.90;;;;;;5070134;28;20464;-71
2023/08/04 10:37:06;;;;;;;1.20;1.07;;;19.10;99.90;;;;;;5069972;28;20567;-71
2023/08/04 10:39:35;;;;;;;2.40;1.47;;;18.90;99.90;;;;;;5053834;28;20487;-71
2023/08/04 10:42:16;;;;;;;1.20;1.10;;;18.80;99.90;;;;;;5070230;28;20833;-72
2023/08/04 10:44:51;;;;;;;1.70;1.40;;;18.70;99.90;;;;;;5056833;28;20474;-71
2023/08/04 10:47:30;;;;;;;2.03;1.40;;;18.70;99.90;;;;;;5069639;28;20450;-72
2023/08/04 10:49:58;;;;;;;1.40;1.13;;;18.70;99.90;;;;;;5074059;28;20532;-72
2023/08/04 10:52:25;;;;;;;2.23;1.30;;;18.60;99.90;;;;;;5073582;28;20479;-72
2023/08/04 10:54:52;;;;;;;1.00;0.90;;;18.70;99.90;;;;;;5073872;28;20495;-72
2023/08/04 10:57:21;;;;;;;2.57;1.30;;;18.70;99.90;;;;;;5072769;28;20456;-72
2023/08/04 10:59:48;;;;;;;3.40;1.40;;;18.80;99.90;;;;;;5073404;28;20978;-72
2023/08/04 11:02:17;;;;;;;1.50;1.17;;;18.80;99.90;;;;;;5073113;28;20452;-71
2023/08/04 11:04:44;;;;;;;1.83;1.10;;;18.90;99.90;;;;;;5073607;28;20457;-71
2023/08/04 11:07:11;;;;;;;1.20;1.00;;;19.00;99.90;;;;;;5072870;28;20470;-72
2023/08/04 11:09:38;;;;;;;1.30;1.20;;;19.20;99.90;;;;;;5073827;28;20482;-72
2023/08/04 11:12:07;;;;;;;1.40;1.20;;;19.40;99.90;;;;;;5073619;28;20488;-72
2023/08/04 11:14:36;;;;;;;7.33;1.30;;;19.70;99.90;;;;;;5056054;28;20944;-72
2023/08/04 11:17:04;;;;;;;2.23;1.40;;;20.00;99.90;;;;;;5072771;28;20981;-72
2023/08/04 11:19:30;;;;;;;2.90;1.43;;;20.20;99.90;;;;;;5072231;28;20477;-72
2023/08/04 11:21:57;;;;;;;1.90;1.20;;;20.40;99.90;;;;;;5073046;28;20466;-71
2023/08/04 11:24:24;;;;;;;1.10;1.00;;;20.60;99.90;;;;;;5072474;28;20464;-72
2023/08/04 11:26:52;;;;;;;1.00;0.83;;;20.80;99.90;;;;;;5072859;28;20457;-72
2023/08/04 11:29:19;;;;;;;1.40;1.10;;;20.90;99.90;;;;;;5072010;28;20479;-72
2023/08/04 11:31:48;;;;;;;1.20;1.00;;;21.10;99.90;;;;;;5072599;28;20454;-72
2023/08/04 11:34:16;;;;;;;1.30;1.10;;;21.00;99.90;;;;;;5072507;28;20458;-72
2023/08/04 11:36:42;;;;;;;1.40;1.10;;;20.90;99.90;;;;;;5072627;28;20963;-72
2023/08/04 11:39:09;;;;;;;1.33;1.00;;;20.70;99.90;;;;;;5070524;28;20478;-72
2023/08/04 11:41:37;;;;;;;1.00;0.90;;;20.40;99.90;;;;;;5048026;28;20473;-72
2023/08/04 11:44:04;;;;;;;1.40;1.27;;;20.20;99.90;;;;;;5036646;28;20474;-72
2023/08/04 11:46:31;;;;;;;2.67;1.30;;;19.90;99.90;;;;;;5050603;28;20461;-71
2023/08/04 11:49:02;;;;;;;1.83;1.63;;;19.60;99.90;;;;;;5050043;28;20482;-71
2023/08/04 11:51:29;;;;;;;2.53;1.63;;;19.40;99.90;;;;;;5051617;28;21025;-71
2023/08/04 11:53:56;;;;;;;2.23;1.50;;;19.20;99.90;;;;;;5052082;28;20983;-72
2023/08/04 11:56:22;;;;;;;2.00;1.80;;;19.10;99.90;;;;;;5051352;28;20468;-71
2023/08/04 11:58:50;;;;;;;2.90;1.63;;;18.90;99.90;;;;;;5051319;28;20480;-70
2023/08/04 12:01:28;;;;;;;1.50;1.40;;;18.90;99.90;;;;;;5117195;22;22240;-93
2023/08/04 12:03:56;;;;;;;1.70;1.37;;;18.80;99.90;;;;;;5124398;28;20508;-93
2023/08/04 12:06:29;;;;;;;1.63;1.50;;;18.70;99.90;;;;;;5121634;28;20451;-94
2023/08/04 12:09:02;;;;;;;1.33;1.23;;;18.60;99.90;;;;;;5119588;28;20483;-94
2023/08/04 12:11:32;;;;;;;1.50;1.30;;;18.50;99.90;;;;;;5119521;28;20452;-95
2023/08/04 12:14:07;;;;;;;3.03;1.30;;;18.50;99.90;;;;;;5124775;22;20850;-70
2023/08/04 12:16:48;;;;;;;2.27;1.30;;;18.50;99.90;;;;;;5071413;28;20826;-68
2023/08/04 12:19:15;;;;;;;2.70;1.40;;;18.50;99.90;;;;;;5072635;28;20482;-69
2023/08/04 12:21:43;;;;;;;1.50;1.40;;;18.50;99.90;;;;;;5064297;28;20455;-69
2023/08/04 12:24:10;;;;;;;1.67;1.20;;;18.60;99.90;;;;;;5071568;28;20460;-69
2023/08/04 12:26:36;;;;;;;2.30;1.40;;;18.80;99.90;;;;;;5071677;28;20462;-69
2023/08/04 12:29:03;;;;;;;2.20;2.00;;;19.10;99.90;;;;;;5070398;28;20475;-68
2023/08/04 12:31:30;;;;;;;1.40;1.30;;;19.20;99.90;;;;;;5078237;28;20459;-67
2023/08/04 12:33:57;;;;;;;1.40;1.27;;;19.30;99.90;;;;;;5071592;28;20554;-68
2023/08/04 12:36:23;;;;;;;1.60;1.50;;;19.30;99.90;;;;;;5070901;28;20498;-67
2023/08/04 12:38:51;;;;;;;1.63;1.27;;;19.30;99.90;;;;;;5071038;28;20485;-68
2023/08/04 12:41:18;;;;;;;1.20;1.10;;;19.40;99.90;;;;;;5071020;28;20471;-71
2023/08/04 12:43:45;;;;;;;1.77;1.53;;;19.40;99.90;;;;;;5071223;28;20818;-71
2023/08/04 12:46:11;;;;;;;1.77;0.97;;;19.40;99.90;;;;;;5070816;28;20468;-73
2023/08/04 12:48:38;;;;;;;2.50;1.23;;;19.40;99.90;;;;;;5070432;28;20484;-72
2023/08/04 12:51:06;;;;;;;1.30;1.03;;;19.50;99.90;;;;;;5071099;28;20834;-72